Time;durP1;ratioP1;P1;durP2;ratioP2;P2;SDS_P1;SDS_P2;PMS_P1;PMS_P2;Temp;Humidity;BMP_temperature;BMP_pressure;BME280_temperature;BME280_humidity;BME280_pressure;Samples;Min_cycle;Max_cycle;Signal;HPM_P1;HPM_P2
2021/10/22 00:01:03;;;;;;;1.30;1.20;;;9.50;99.90;;;;;;4977860;28;21026;-55
2021/10/22 00:03:29;;;;;;;1.50;1.40;;;9.50;99.90;;;;;;4975472;28;20650;-55
2021/10/22 00:05:56;;;;;;;2.40;1.92;;;9.60;99.90;;;;;;4971159;28;20737;-55
2021/10/22 00:08:22;;;;;;;2.35;1.70;;;9.30;99.90;;;;;;4972997;28;20181;-54
2021/10/22 00:10:48;;;;;;;1.95;1.83;;;9.30;99.90;;;;;;4973573;28;20272;-54
2021/10/22 00:13:14;;;;;;;2.10;1.60;;;9.30;99.90;;;;;;4976547;28;20721;-55
2021/10/22 00:15:40;;;;;;;2.20;2.00;;;9.20;99.90;;;;;;4972876;28;20604;-55
2021/10/22 00:18:05;;;;;;;2.10;1.57;;;9.20;99.90;;;;;;4972787;28;20510;-54
2021/10/22 00:20:31;;;;;;;2.60;2.27;;;9.10;99.90;;;;;;4974848;28;20208;-55
2021/10/22 00:22:57;;;;;;;1.97;1.80;;;9.10;99.90;;;;;;4974891;28;20188;-55
2021/10/22 00:25:22;;;;;;;2.07;1.80;;;8.90;99.90;;;;;;4970793;28;20924;-55
2021/10/22 00:27:50;;;;;;;3.93;1.77;;;9.40;99.90;;;;;;4977445;28;20199;-55
2021/10/22 00:30:17;;;;;;;3.20;1.70;;;9.20;99.90;;;;;;4978398;28;20298;-55
2021/10/22 00:32:43;;;;;;;3.50;1.92;;;8.60;99.90;;;;;;4975935;28;20463;-55
2021/10/22 00:35:09;;;;;;;2.85;2.00;;;9.20;99.90;;;;;;4971482;28;20193;-55
2021/10/22 00:37:35;;;;;;;4.45;2.05;;;9.20;99.90;;;;;;4980293;28;20184;-55
2021/10/22 00:40:01;;;;;;;2.10;1.90;;;9.20;99.90;;;;;;4969457;28;20755;-54
2021/10/22 00:42:27;;;;;;;4.25;2.10;;;9.10;99.90;;;;;;4973748;28;20591;-55
2021/10/22 00:44:53;;;;;;;2.27;1.50;;;9.10;99.90;;;;;;4978820;28;20649;-54
2021/10/22 00:47:19;;;;;;;2.30;2.00;;;9.20;99.90;;;;;;4972385;28;20736;-54
2021/10/22 00:49:45;;;;;;;2.17;1.85;;;9.20;99.90;;;;;;4971025;28;20213;-54
2021/10/22 00:52:12;;;;;;;5.83;2.93;;;9.20;99.90;;;;;;4974074;28;20197;-54
2021/10/22 00:54:37;;;;;;;3.35;2.30;;;9.20;99.90;;;;;;4968147;28;20924;-54
2021/10/22 00:57:03;;;;;;;2.30;2.10;;;9.00;99.90;;;;;;4974287;28;20227;-54
2021/10/22 00:59:29;;;;;;;3.15;2.00;;;9.10;99.90;;;;;;4973606;28;20563;-55
2021/10/22 01:01:55;;;;;;;3.30;2.28;;;9.20;99.90;;;;;;4964418;28;20274;-54
2021/10/22 01:04:21;;;;;;;1.60;1.50;;;9.30;99.90;;;;;;4971338;28;20213;-55
2021/10/22 01:06:47;;;;;;;3.08;1.80;;;9.10;99.90;;;;;;4984070;28;21038;-55
2021/10/22 01:09:13;;;;;;;1.80;1.70;;;9.30;99.90;;;;;;4974844;28;20224;-55
2021/10/22 01:11:40;;;;;;;5.00;1.80;;;9.30;99.90;;;;;;4973986;28;20192;-55
2021/10/22 01:14:07;;;;;;;1.50;1.40;;;9.40;99.90;;;;;;4969869;28;20456;-54
2021/10/22 01:16:37;;;;;;;2.60;1.50;;;9.40;99.90;;;;;;4971100;28;20211;-54
2021/10/22 01:19:03;;;;;;;4.80;1.70;;;9.30;99.90;;;;;;4975897;28;20208;-54
2021/10/22 01:21:29;;;;;;;3.72;1.70;;;9.20;99.90;;;;;;4976049;28;20185;-54
2021/10/22 01:23:55;;;;;;;2.60;1.37;;;9.30;99.90;;;;;;4974732;28;20263;-54
2021/10/22 01:26:22;;;;;;;2.57;1.50;;;9.30;99.90;;;;;;4976249;28;20191;-54
2021/10/22 01:28:49;;;;;;;2.65;1.42;;;9.30;99.90;;;;;;4975392;28;20231;-54
2021/10/22 01:31:15;;;;;;;3.38;1.38;;;9.10;99.90;;;;;;4961719;28;20279;-54
2021/10/22 01:33:41;;;;;;;2.05;1.67;;;9.30;99.90;;;;;;4976708;28;20199;-54
2021/10/22 01:36:07;;;;;;;2.58;1.55;;;9.30;99.90;;;;;;4975666;28;20692;-54
2021/10/22 01:38:33;;;;;;;1.55;1.45;;;9.40;99.90;;;;;;4978037;28;20191;-54
2021/10/22 01:40:59;;;;;;;1.60;1.50;;;9.40;99.90;;;;;;4973300;28;20184;-54
2021/10/22 01:43:28;;;;;;;5.10;1.93;;;9.60;99.90;;;;;;4973356;28;20189;-54
2021/10/22 01:45:54;;;;;;;3.22;1.50;;;9.70;99.90;;;;;;4977827;28;20191;-54
2021/10/22 01:48:20;;;;;;;4.30;1.20;;;9.50;99.90;;;;;;4972640;28;20573;-54
2021/10/22 01:50:46;;;;;;;2.08;1.67;;;9.60;99.90;;;;;;4976095;28;20193;-54
2021/10/22 01:53:14;;;;;;;6.10;1.40;;;9.40;99.90;;;;;;4973200;28;20224;-54
2021/10/22 01:55:41;;;;;;;3.83;1.48;;;9.50;99.90;;;;;;4973303;28;20486;-54
2021/10/22 01:58:08;;;;;;;2.15;1.30;;;9.30;99.90;;;;;;4976998;28;20195;-54
2021/10/22 02:00:34;;;;;;;4.20;1.65;;;9.30;99.90;;;;;;4975117;28;20211;-54
2021/10/22 02:02:59;;;;;;;3.00;1.50;;;9.40;99.90;;;;;;4961155;28;20196;-54
2021/10/22 02:05:25;;;;;;;1.80;1.30;;;9.30;99.90;;;;;;4977036;28;20279;-54
2021/10/22 02:07:51;;;;;;;2.25;1.55;;;9.40;99.90;;;;;;4977727;28;20572;-54
2021/10/22 02:10:17;;;;;;;1.97;1.33;;;9.20;99.90;;;;;;4969853;28;20208;-55
2021/10/22 02:12:42;;;;;;;3.90;1.53;;;9.20;99.90;;;;;;4979052;28;20204;-55
2021/10/22 02:15:09;;;;;;;6.37;1.80;;;9.20;99.90;;;;;;4975779;28;20196;-55
2021/10/22 02:17:35;;;;;;;2.35;1.20;;;9.10;99.90;;;;;;4975968;28;20554;-55
2021/10/22 02:20:02;;;;;;;3.53;1.35;;;8.60;99.90;;;;;;4975386;28;20208;-55
2021/10/22 02:22:28;;;;;;;4.97;1.65;;;9.20;99.90;;;;;;4974966;28;20234;-54
2021/10/22 02:24:54;;;;;;;3.40;1.70;;;9.10;99.90;;;;;;4971252;28;20188;-55
2021/10/22 02:27:20;;;;;;;3.17;1.37;;;9.10;99.90;;;;;;4975267;28;20423;-55
2021/10/22 02:29:45;;;;;;;5.37;2.17;;;8.70;99.90;;;;;;4975678;28;20949;-55
2021/10/22 02:32:11;;;;;;;4.40;1.87;;;8.70;99.90;;;;;;4975286;28;20616;-54
2021/10/22 02:34:37;;;;;;;4.97;1.90;;;8.30;99.90;;;;;;4976319;28;20563;-55
2021/10/22 02:37:03;;;;;;;7.87;1.77;;;8.60;99.90;;;;;;4969287;28;20223;-55
2021/10/22 02:39:32;;;;;;;3.20;2.03;;;8.50;99.90;;;;;;4973212;28;20468;-55
2021/10/22 02:42:00;;;;;;;3.97;2.30;;;8.80;99.90;;;;;;4970966;28;20454;-55
2021/10/22 02:44:26;;;;;;;10.27;1.83;;;8.50;99.90;;;;;;4971118;28;20524;-55
2021/10/22 02:46:52;;;;;;;3.63;1.55;;;8.80;99.90;;;;;;4958447;28;20192;-55
2021/10/22 02:49:17;;;;;;;5.20;1.83;;;8.90;99.90;;;;;;4974919;28;20227;-55
2021/10/22 02:51:43;;;;;;;5.50;2.53;;;8.60;99.90;;;;;;4976688;28;20197;-54
2021/10/22 02:54:09;;;;;;;4.97;1.40;;;8.30;99.90;;;;;;4969585;28;20191;-55
2021/10/22 02:56:34;;;;;;;6.30;1.80;;;8.40;99.90;;;;;;4973764;28;20215;-55
2021/10/22 02:59:00;;;;;;;2.20;1.70;;;8.40;99.90;;;;;;4974011;28;20250;-55
2021/10/22 03:01:26;;;;;;;2.60;2.03;;;8.30;99.90;;;;;;4980901;28;20556;-55
2021/10/22 03:03:51;;;;;;;5.93;2.70;;;8.20;99.90;;;;;;4963590;28;20185;-55
2021/10/22 03:06:17;;;;;;;9.80;2.63;;;8.10;99.90;;;;;;4979558;28;20188;-54
2021/10/22 03:08:43;;;;;;;4.20;1.60;;;8.20;99.90;;;;;;4967853;28;20204;-54
2021/10/22 03:11:09;;;;;;;3.80;2.30;;;8.10;99.90;;;;;;4976182;28;20254;-54
2021/10/22 03:13:35;;;;;;;10.10;2.07;;;8.20;99.90;;;;;;4977189;28;20192;-54
2021/10/22 03:16:00;;;;;;;5.80;2.10;;;8.10;99.90;;;;;;4973649;28;20212;-55
2021/10/22 03:18:26;;;;;;;3.20;2.43;;;8.10;99.90;;;;;;4979122;28;20239;-55
2021/10/22 03:20:52;;;;;;;5.43;3.30;;;7.80;99.90;;;;;;4975162;28;20454;-54
2021/10/22 03:23:17;;;;;;;4.43;2.40;;;7.70;99.90;;;;;;4979848;28;20195;-54
2021/10/22 03:25:43;;;;;;;5.47;2.03;;;8.00;99.90;;;;;;4974838;28;20271;-54
2021/10/22 03:28:09;;;;;;;9.97;2.50;;;7.80;99.90;;;;;;4977865;28;20736;-54
2021/10/22 03:30:36;;;;;;;3.03;2.00;;;7.70;99.90;;;;;;4970879;28;20304;-54
2021/10/22 03:33:03;;;;;;;7.75;2.33;;;7.50;99.90;;;;;;4972790;28;20181;-55
2021/10/22 03:35:28;;;;;;;2.70;2.03;;;7.80;99.90;;;;;;4976544;28;20211;-54
2021/10/22 03:37:55;;;;;;;8.00;2.60;;;7.50;99.90;;;;;;4979515;28;20322;-55
2021/10/22 03:40:21;;;;;;;5.53;2.35;;;7.50;99.90;;;;;;4978022;28;20485;-55
2021/10/22 03:42:48;;;;;;;5.80;2.40;;;7.70;99.90;;;;;;4974089;28;20192;-55
2021/10/22 03:45:14;;;;;;;6.57;2.25;;;7.80;99.90;;;;;;4976320;28;20566;-54
2021/10/22 03:47:41;;;;;;;5.65;1.95;;;7.80;99.90;;;;;;4975783;28;20681;-54
2021/10/22 03:50:08;;;;;;;6.35;1.90;;;7.60;99.90;;;;;;4977126;28;20681;-55
2021/10/22 03:52:34;;;;;;;4.32;2.35;;;7.50;99.90;;;;;;4969773;28;20185;-55
2021/10/22 03:54:59;;;;;;;4.90;2.17;;;7.60;99.90;;;;;;4967848;28;20191;-54
2021/10/22 03:57:25;;;;;;;7.40;2.80;;;7.50;99.90;;;;;;4972428;28;20237;-54
2021/10/22 03:59:51;;;;;;;3.00;2.33;;;7.40;99.90;;;;;;4974701;28;20216;-55
2021/10/22 04:02:16;;;;;;;6.80;1.97;;;7.20;99.90;;;;;;4978228;28;20191;-54
2021/10/22 04:04:42;;;;;;;5.90;2.10;;;7.50;99.90;;;;;;4971627;28;20428;-54
2021/10/22 04:07:09;;;;;;;6.30;2.00;;;7.20;99.90;;;;;;4974914;28;20188;-54
2021/10/22 04:09:35;;;;;;;5.72;2.30;;;7.50;99.90;;;;;;4973155;28;20257;-54
2021/10/22 04:12:01;;;;;;;5.60;2.87;;;7.60;99.90;;;;;;4976322;28;20470;-55
2021/10/22 04:14:27;;;;;;;7.23;2.47;;;7.40;99.90;;;;;;4981799;28;20442;-54
2021/10/22 04:16:56;;;;;;;2.58;2.13;;;7.20;99.90;;;;;;4974164;28;20318;-54
2021/10/22 04:19:22;;;;;;;3.88;2.20;;;7.40;99.90;;;;;;4975231;28;20970;-54
2021/10/22 04:21:48;;;;;;;4.93;2.30;;;7.00;99.90;;;;;;4979393;28;20188;-54
2021/10/22 04:24:14;;;;;;;5.77;2.27;;;6.90;99.90;;;;;;4969077;28;20208;-54
2021/10/22 04:26:39;;;;;;;3.87;2.20;;;7.00;99.90;;;;;;4969944;28;20207;-55
2021/10/22 04:29:05;;;;;;;5.70;2.43;;;6.60;99.90;;;;;;4979002;28;20221;-55
2021/10/22 04:31:30;;;;;;;6.20;2.30;;;7.10;99.90;;;;;;4973008;28;20189;-54
2021/10/22 04:33:56;;;;;;;5.90;2.40;;;7.40;99.90;;;;;;4977397;28;20215;-54
2021/10/22 04:36:22;;;;;;;5.70;2.83;;;7.10;99.90;;;;;;4974809;28;20220;-55
2021/10/22 04:41:32;;;;;;;4.75;2.60;;;7.20;99.90;;;;;;4976571;28;20186;-55
2021/10/22 04:43:58;;;;;;;3.60;2.70;;;7.00;99.90;;;;;;4976081;28;20186;-54
2021/10/22 04:46:24;;;;;;;4.20;2.40;;;7.20;99.90;;;;;;4975926;28;20187;-55
2021/10/22 04:48:50;;;;;;;2.83;2.30;;;7.20;99.90;;;;;;4981921;28;20241;-55
2021/10/22 04:51:15;;;;;;;3.00;2.57;;;7.30;99.90;;;;;;4976910;28;20443;-55
2021/10/22 04:53:41;;;;;;;5.10;2.60;;;7.10;99.90;;;;;;4973427;28;20380;-54
2021/10/22 04:56:07;;;;;;;3.10;2.20;;;6.80;99.90;;;;;;4968094;28;20661;-55
2021/10/22 04:58:33;;;;;;;6.57;2.37;;;7.30;99.90;;;;;;4970955;28;20218;-54
2021/10/22 05:00:59;;;;;;;5.07;2.50;;;7.10;99.90;;;;;;4967166;28;20192;-55
2021/10/22 05:03:24;;;;;;;5.22;2.40;;;7.20;99.90;;;;;;4971357;28;20549;-55
2021/10/22 05:05:50;;;;;;;4.47;2.53;;;7.20;99.90;;;;;;4971256;28;20271;-55
2021/10/22 05:08:16;;;;;;;3.90;2.10;;;6.90;99.90;;;;;;4971153;28;20196;-55
2021/10/22 05:10:42;;;;;;;5.97;2.70;;;7.40;99.90;;;;;;4967634;28;20196;-55
2021/10/22 05:13:07;;;;;;;3.17;2.40;;;7.10;99.90;;;;;;4970185;28;20181;-55
2021/10/22 05:15:33;;;;;;;3.50;2.23;;;6.60;99.90;;;;;;4968560;28;20244;-55
2021/10/22 05:17:59;;;;;;;5.20;2.50;;;7.00;99.90;;;;;;4969378;28;20212;-55
2021/10/22 05:20:25;;;;;;;5.50;2.40;;;7.00;99.90;;;;;;4971154;28;20447;-55
2021/10/22 05:22:50;;;;;;;5.30;2.80;;;7.00;99.90;;;;;;4970671;28;20183;-56
2021/10/22 05:25:17;;;;;;;6.20;3.13;;;6.40;99.90;;;;;;4969284;28;20254;-56
2021/10/22 05:27:43;;;;;;;7.82;3.25;;;6.90;99.90;;;;;;4970699;28;20189;-55
2021/10/22 05:30:10;;;;;;;5.53;3.03;;;6.40;99.90;;;;;;4972577;28;20225;-55
2021/10/22 05:32:36;;;;;;;4.25;2.30;;;7.00;99.90;;;;;;4973475;28;20192;-55
2021/10/22 05:35:02;;;;;;;6.80;4.13;;;6.90;99.90;;;;;;4973846;28;20192;-55
2021/10/22 05:37:28;;;;;;;3.42;2.95;;;6.90;99.90;;;;;;4973399;28;20482;-55
2021/10/22 05:39:53;;;;;;;13.20;3.40;;;6.30;99.90;;;;;;4968438;28;20216;-55
2021/10/22 05:42:19;;;;;;;5.10;3.00;;;6.90;99.90;;;;;;4973645;28;20188;-55
2021/10/22 05:44:45;;;;;;;4.30;2.40;;;6.90;99.90;;;;;;4971847;28;20203;-55
2021/10/22 05:47:12;;;;;;;5.97;2.67;;;7.00;99.90;;;;;;4973960;28;20204;-55
2021/10/22 05:49:38;;;;;;;7.60;3.20;;;7.10;99.90;;;;;;4973483;28;20237;-55
2021/10/22 05:52:04;;;;;;;3.50;2.38;;;7.00;99.90;;;;;;4974436;28;20184;-56
2021/10/22 05:54:30;;;;;;;4.30;3.00;;;7.10;99.90;;;;;;4973411;28;20251;-55
2021/10/22 05:56:56;;;;;;;4.95;2.80;;;6.90;99.90;;;;;;4973706;28;20211;-55
2021/10/22 05:59:21;;;;;;;10.83;3.33;;;7.00;99.90;;;;;;4973074;28;20297;-58
2021/10/22 06:01:47;;;;;;;4.83;2.47;;;6.90;99.90;;;;;;4970168;28;20233;-57
2021/10/22 06:04:13;;;;;;;7.97;3.73;;;6.90;99.90;;;;;;4965017;28;20223;-57
2021/10/22 06:06:39;;;;;;;5.53;2.45;;;6.70;99.90;;;;;;4973581;28;20189;-57
2021/10/22 06:09:05;;;;;;;5.73;3.20;;;7.00;99.90;;;;;;4972437;28;20296;-56
2021/10/22 06:11:31;;;;;;;5.50;2.38;;;7.10;99.90;;;;;;4973708;28;20196;-56
2021/10/22 06:13:57;;;;;;;6.43;3.10;;;7.00;99.90;;;;;;4973768;28;20239;-56
2021/10/22 06:16:23;;;;;;;5.50;2.10;;;6.70;99.90;;;;;;4969902;28;20220;-56
2021/10/22 06:18:51;;;;;;;6.10;2.20;;;6.70;99.90;;;;;;4978251;28;20199;-55
2021/10/22 06:23:55;;;;;;;7.60;2.70;;;6.70;99.90;;;;;;4973172;28;20209;-57
2021/10/22 06:26:23;;;;;;;4.97;2.58;;;6.50;99.90;;;;;;4972738;28;20188;-56
2021/10/22 06:28:50;;;;;;;7.63;3.85;;;6.70;99.90;;;;;;4972278;28;20213;-56
2021/10/22 06:31:16;;;;;;;6.75;2.67;;;6.90;99.90;;;;;;4971639;28;20221;-56
2021/10/22 06:33:42;;;;;;;7.67;3.70;;;6.90;99.90;;;;;;4972609;28;20195;-57
2021/10/22 06:36:07;;;;;;;5.00;2.90;;;6.90;99.90;;;;;;4973347;28;20470;-56
2021/10/22 06:38:34;;;;;;;7.00;2.90;;;6.80;99.90;;;;;;4972803;28;20560;-56
2021/10/22 06:41:00;;;;;;;16.25;3.92;;;7.00;99.90;;;;;;4969948;28;20850;-56
2021/10/22 06:43:26;;;;;;;5.65;3.28;;;7.00;99.90;;;;;;4966753;28;20215;-56
2021/10/22 06:45:52;;;;;;;4.97;2.40;;;7.00;99.90;;;;;;4963684;28;20247;-56
2021/10/22 06:48:18;;;;;;;10.73;3.22;;;6.80;99.90;;;;;;4971078;28;20465;-56
2021/10/22 06:50:46;;;;;;;10.00;4.27;;;7.40;99.90;;;;;;4972348;28;20188;-55
2021/10/22 06:53:12;;;;;;;7.32;3.50;;;7.30;99.90;;;;;;4972110;28;20835;-56
2021/10/22 06:55:39;;;;;;;5.32;2.30;;;7.30;99.90;;;;;;4972089;28;20275;-56
2021/10/22 06:58:05;;;;;;;6.93;2.55;;;7.30;99.90;;;;;;4973775;28;20265;-56
2021/10/22 07:00:32;;;;;;;7.03;2.08;;;7.40;99.90;;;;;;4979041;28;20214;-56
2021/10/22 07:02:58;;;;;;;6.90;2.58;;;7.30;99.90;;;;;;4974443;28;20219;-53
2021/10/22 07:08:00;;;;;;;6.68;2.80;;;7.60;99.90;;;;;;4970178;28;20176;-53
2021/10/22 07:10:27;;;;;;;7.03;2.90;;;7.30;99.90;;;;;;4971623;28;20291;-54
2021/10/22 07:12:53;;;;;;;3.22;2.20;;;7.60;99.90;;;;;;4972033;28;20195;-54
2021/10/22 07:15:19;;;;;;;5.03;2.80;;;7.50;99.90;;;;;;4954698;28;20177;-54
2021/10/22 07:17:45;;;;;;;6.03;2.77;;;7.60;99.90;;;;;;4972640;28;20189;-54
2021/10/22 07:20:12;;;;;;;6.07;2.22;;;7.80;99.90;;;;;;4972493;28;20208;-56
2021/10/22 07:22:47;;;;;;;7.85;2.65;;;7.60;99.90;;;;;;4954932;28;20207;-55
2021/10/22 07:25:14;;;;;;;5.45;2.25;;;7.60;99.90;;;;;;4971463;28;20191;-55
2021/10/22 07:27:40;;;;;;;7.80;2.40;;;7.80;99.90;;;;;;4972129;28;20185;-55
2021/10/22 07:30:07;;;;;;;5.85;1.75;;;7.80;99.90;;;;;;4971630;28;20290;-56
2021/10/22 07:32:32;;;;;;;5.22;2.55;;;7.80;99.90;;;;;;4970092;28;20204;-55
2021/10/22 07:34:58;;;;;;;4.53;2.30;;;7.90;99.90;;;;;;4972459;28;20188;-55
2021/10/22 07:37:24;;;;;;;4.40;2.10;;;7.90;99.90;;;;;;4971588;28;20241;-55
2021/10/22 07:39:51;;;;;;;3.80;2.10;;;8.10;99.90;;;;;;4971945;28;20463;-55
2021/10/22 07:42:17;;;;;;;5.25;2.05;;;8.00;99.90;;;;;;4965093;28;20191;-56
2021/10/22 07:44:43;;;;;;;7.78;2.95;;;8.20;99.90;;;;;;4971930;28;20200;-55
2021/10/22 07:47:08;;;;;;;10.07;2.60;;;8.10;99.90;;;;;;4970390;28;20230;-55
2021/10/22 07:49:34;;;;;;;9.87;3.20;;;8.10;99.90;;;;;;4971645;28;20215;-55
2021/10/22 07:51:59;;;;;;;9.13;2.90;;;8.30;99.90;;;;;;4965258;28;20276;-55
2021/10/22 07:54:25;;;;;;;2.87;2.23;;;8.10;99.90;;;;;;4971481;28;20184;-54
2021/10/22 07:56:51;;;;;;;7.20;2.17;;;8.30;99.90;;;;;;4970457;28;20262;-55
2021/10/22 07:59:16;;;;;;;5.03;2.40;;;8.40;99.90;;;;;;4964999;28;20613;-55
2021/10/22 08:01:43;;;;;;;7.20;2.13;;;8.70;99.90;;;;;;4968223;28;20192;-54
2021/10/22 08:04:10;;;;;;;8.95;3.45;;;8.50;99.90;;;;;;4967141;28;20181;-55
2021/10/22 08:06:38;;;;;;;6.78;2.42;;;8.70;99.90;;;;;;4970196;28;20191;-55
2021/10/22 08:09:07;;;;;;;6.05;2.30;;;8.90;99.90;;;;;;4970481;28;20211;-55
2021/10/22 08:11:34;;;;;;;4.95;2.10;;;8.90;99.90;;;;;;4967631;28;20191;-55
2021/10/22 08:14:00;;;;;;;9.30;2.65;;;8.90;99.90;;;;;;4969374;28;20200;-55
2021/10/22 08:16:26;;;;;;;8.93;2.28;;;9.00;99.90;;;;;;4969935;28;20302;-55
2021/10/22 08:18:52;;;;;;;6.77;2.27;;;8.90;99.90;;;;;;4970751;28;20291;-55
2021/10/22 08:24:07;;;;;;;5.88;2.13;;;9.20;99.90;;;;;;4949195;28;20191;-55
2021/10/22 08:26:33;;;;;;;5.30;2.17;;;9.30;99.90;;;;;;4971625;28;20180;-55
2021/10/22 08:28:59;;;;;;;5.87;2.20;;;9.40;99.90;;;;;;4975985;28;20200;-56
2021/10/22 08:31:26;;;;;;;4.25;1.92;;;9.50;99.90;;;;;;4954130;28;20207;-56
2021/10/22 08:33:52;;;;;;;6.32;2.10;;;9.70;99.90;;;;;;4967909;28;20660;-55
2021/10/22 08:36:17;;;;;;;8.45;2.10;;;9.70;99.90;;;;;;4972986;28;20208;-57
2021/10/22 08:38:43;;;;;;;8.77;3.37;;;10.20;99.90;;;;;;4969900;28;20197;-55
2021/10/22 08:41:16;;;;;;;5.07;3.07;;;10.00;99.90;;;;;;4969141;28;20181;-57
2021/10/22 08:43:43;;;;;;;5.50;1.80;;;9.70;99.90;;;;;;4973025;28;20435;-57
2021/10/22 08:46:14;;;;;;;6.50;2.75;;;10.10;99.90;;;;;;4965139;28;20205;-57
2021/10/22 08:48:43;;;;;;;7.95;2.53;;;10.30;99.90;;;;;;4970407;28;20232;-57
2021/10/22 08:51:09;;;;;;;5.90;2.15;;;10.50;99.90;;;;;;4968046;28;20335;-56
2021/10/22 08:53:37;;;;;;;7.03;2.20;;;10.90;99.90;;;;;;4970120;28;20279;-59
2021/10/22 08:56:05;;;;;;;7.03;2.25;;;11.30;98.10;;;;;;4963522;28;20279;-59
2021/10/22 08:58:31;;;;;;;5.22;2.03;;;11.40;97.30;;;;;;4969893;28;20191;-57
2021/10/22 09:00:57;;;;;;;10.23;2.67;;;11.90;96.60;;;;;;4963144;28;20565;-57
2021/10/22 09:03:22;;;;;;;3.63;1.60;;;12.20;96.40;;;;;;4964782;28;20495;-57
2021/10/22 09:06:01;;;;;;;7.37;3.00;;;11.90;97.00;;;;;;4970477;28;20190;-57
2021/10/22 09:08:30;;;;;;;6.68;2.25;;;12.00;98.10;;;;;;4963966;28;20218;-57
2021/10/22 09:10:57;;;;;;;3.58;2.03;;;12.20;97.20;;;;;;4967138;28;20212;-57
2021/10/22 09:13:30;;;;;;;8.93;3.03;;;12.00;96.80;;;;;;4962884;28;20199;-58
2021/10/22 09:15:58;;;;;;;8.88;2.55;;;12.20;95.50;;;;;;4963873;28;20217;-57
2021/10/22 09:18:26;;;;;;;6.78;1.70;;;12.00;95.40;;;;;;4968373;28;20190;-58
2021/10/22 09:20:54;;;;;;;7.45;2.10;;;12.00;95.90;;;;;;4964897;28;20186;-57
2021/10/22 09:23:41;;;;;;;4.03;1.60;;;12.20;96.20;;;;;;4970264;28;20225;-58
2021/10/22 09:26:14;;;;;;;5.88;1.77;;;12.30;94.90;;;;;;4969576;28;20198;-57
2021/10/22 09:28:40;;;;;;;6.30;2.60;;;12.50;94.80;;;;;;4969828;28;20510;-57
2021/10/22 09:31:19;;;;;;;5.22;1.98;;;12.20;95.30;;;;;;4968902;28;20240;-57
2021/10/22 09:33:54;;;;;;;5.13;2.45;;;12.30;94.80;;;;;;4969195;28;20592;-58
2021/10/22 09:36:37;;;;;;;4.22;1.90;;;12.50;94.50;;;;;;4969113;28;20746;-56
2021/10/22 09:39:18;;;;;;;3.50;1.98;;;12.20;94.00;;;;;;4966247;28;20263;-57
2021/10/22 09:42:09;;;;;;;6.95;3.05;;;12.30;94.00;;;;;;4970895;28;20202;-57
2021/10/22 09:44:40;;;;;;;4.35;2.20;;;12.20;93.60;;;;;;4969844;28;20195;-58
2021/10/22 09:47:06;;;;;;;4.75;2.05;;;12.50;93.50;;;;;;4959274;28;20199;-57
2021/10/22 09:49:38;;;;;;;5.37;2.97;;;12.90;93.10;;;;;;4961730;28;20208;-56
2021/10/22 09:52:21;;;;;;;4.80;1.60;;;12.60;92.50;;;;;;4967928;28;20243;-57
2021/10/22 09:55:06;;;;;;;5.03;1.75;;;12.50;91.00;;;;;;4965934;28;20200;-57
2021/10/22 09:57:32;;;;;;;5.65;2.30;;;13.10;87.10;;;;;;4967867;28;20212;-58
2021/10/22 10:00:03;;;;;;;3.53;1.50;;;13.70;84.10;;;;;;4971866;28;20204;-55
2021/10/22 10:02:29;;;;;;;3.00;1.63;;;14.20;78.50;;;;;;4967765;28;20443;-56
2021/10/22 10:04:55;;;;;;;4.75;1.38;;;14.70;76.50;;;;;;4964320;28;20231;-56
2021/10/22 10:07:23;;;;;;;3.58;1.33;;;14.80;79.30;;;;;;4961667;28;20200;-56
2021/10/22 10:09:50;;;;;;;4.93;1.88;;;14.70;78.90;;;;;;4957595;28;20231;-56
2021/10/22 10:12:17;;;;;;;3.85;2.45;;;15.20;75.30;;;;;;4970113;28;20550;-56
2021/10/22 10:14:42;;;;;;;5.63;2.25;;;15.70;72.70;;;;;;4968833;28;20191;-57
2021/10/22 10:17:08;;;;;;;2.63;1.33;;;16.60;71.20;;;;;;4966739;28;20216;-57
2021/10/22 10:19:39;;;;;;;4.27;1.77;;;17.10;64.60;;;;;;4971325;28;20204;-56
2021/10/22 10:22:29;;;;;;;2.67;1.13;;;16.40;63.10;;;;;;4972801;28;20188;-55
2021/10/22 10:25:05;;;;;;;1.65;1.00;;;15.90;63.70;;;;;;4963887;28;20200;-55
2021/10/22 10:27:47;;;;;;;1.88;1.52;;;15.50;65.70;;;;;;4972815;28;20598;-55
2021/10/22 10:30:27;;;;;;;3.60;1.40;;;15.30;66.80;;;;;;4972773;28;20200;-56
2021/10/22 10:32:54;;;;;;;2.70;1.50;;;15.20;67.20;;;;;;4971834;28;20234;-55
2021/10/22 10:35:19;;;;;;;3.15;1.50;;;15.20;69.00;;;;;;4972670;28;20224;-56
2021/10/22 10:37:51;;;;;;;2.70;1.20;;;15.30;67.20;;;;;;4969476;28;20227;-56
2021/10/22 10:40:28;;;;;;;3.10;1.42;;;15.60;67.60;;;;;;4965828;28;20691;-55
2021/10/22 10:42:59;;;;;;;4.75;1.35;;;15.90;64.00;;;;;;4960993;28;20178;-56
2021/10/22 10:45:25;;;;;;;4.15;1.63;;;16.00;63.80;;;;;;4971549;28;20641;-57
2021/10/22 10:47:59;;;;;;;2.40;1.30;;;16.40;62.70;;;;;;4961662;28;20259;-55
2021/10/22 10:50:48;;;;;;;3.08;1.58;;;16.70;63.10;;;;;;4972897;28;20470;-55
2021/10/22 10:53:29;;;;;;;2.65;2.17;;;16.30;59.40;;;;;;4969890;28;20569;-55
2021/10/22 10:55:55;;;;;;;1.52;1.05;;;16.00;59.10;;;;;;4971854;28;20218;-56
2021/10/22 10:58:22;;;;;;;3.07;1.40;;;15.70;60.40;;;;;;4972140;28;20176;-56
2021/10/22 11:00:53;;;;;;;2.95;1.30;;;15.80;58.30;;;;;;4967702;28;20444;-56
2021/10/22 11:03:23;;;;;;;2.53;1.20;;;16.50;58.30;;;;;;4962765;28;20215;-56
2021/10/22 11:05:55;;;;;;;3.05;1.30;;;16.10;58.20;;;;;;4967195;28;20596;-56
2021/10/22 11:08:28;;;;;;;2.65;1.17;;;16.10;59.80;;;;;;4955382;28;20193;-56
2021/10/22 11:11:05;;;;;;;3.35;1.25;;;15.90;60.40;;;;;;4967564;28;20203;-57
2021/10/22 11:13:45;;;;;;;1.88;1.20;;;16.10;59.10;;;;;;4969592;28;20196;-56
2021/10/22 11:16:51;;;;;;;3.30;1.10;;;16.30;58.20;;;;;;4966080;28;20220;-57
2021/10/22 11:19:17;;;;;;;3.60;1.35;;;16.40;57.20;;;;;;4947576;28;20211;-56
2021/10/22 11:21:46;;;;;;;1.38;1.00;;;16.70;58.00;;;;;;4970186;28;20220;-57
2021/10/22 11:24:23;;;;;;;2.95;1.00;;;17.10;56.60;;;;;;4966315;28;20177;-57
2021/10/22 11:26:59;;;;;;;1.88;1.40;;;17.10;57.00;;;;;;4970884;28;20188;-56
2021/10/22 11:29:25;;;;;;;4.05;1.65;;;16.60;58.00;;;;;;4964524;28;20705;-57
2021/10/22 11:31:58;;;;;;;2.55;1.35;;;16.50;57.60;;;;;;4971735;28;20303;-56
2021/10/22 11:34:24;;;;;;;2.03;1.38;;;16.10;56.00;;;;;;4964638;28;20203;-57
2021/10/22 11:37:13;;;;;;;3.60;1.80;;;15.80;57.30;;;;;;4971184;28;20200;-56
2021/10/22 11:39:51;;;;;;;3.05;1.35;;;15.50;59.50;;;;;;4968979;28;20201;-57
2021/10/22 11:42:30;;;;;;;3.60;1.40;;;14.90;59.90;;;;;;4972059;28;20653;-59
2021/10/22 11:45:05;;;;;;;4.07;1.40;;;14.80;60.80;;;;;;4966672;28;20984;-57
2021/10/22 11:47:45;;;;;;;1.90;1.15;;;13.80;58.50;;;;;;4967784;28;20532;-56
2021/10/22 11:50:29;;;;;;;4.22;1.23;;;14.20;60.40;;;;;;4965088;28;20603;-56
2021/10/22 11:53:11;;;;;;;4.53;1.75;;;13.80;61.70;;;;;;4971290;28;20242;-56
2021/10/22 11:55:42;;;;;;;1.92;1.45;;;13.40;61.50;;;;;;4970585;28;20191;-56
2021/10/22 11:58:10;;;;;;;2.55;1.25;;;13.80;57.70;;;;;;4964544;28;20184;-56
2021/10/22 12:00:55;;;;;;;2.40;0.90;;;13.80;55.80;;;;;;4972190;28;20211;-56
2021/10/22 12:03:29;;;;;;;2.47;1.10;;;13.70;54.60;;;;;;4970970;28;20580;-58
2021/10/22 12:05:58;;;;;;;2.22;1.20;;;13.80;54.70;;;;;;4962250;28;20286;-57
2021/10/22 12:08:24;;;;;;;2.85;0.90;;;13.80;56.20;;;;;;4971696;28;20219;-57
2021/10/22 12:10:52;;;;;;;2.17;1.27;;;13.90;55.80;;;;;;4969739;28;20188;-57
2021/10/22 12:13:33;;;;;;;1.80;1.20;;;14.10;56.40;;;;;;4971909;28;20681;-57
2021/10/22 12:16:29;;;;;;;3.10;1.23;;;14.10;56.20;;;;;;4968182;28;20224;-56
2021/10/22 12:19:00;;;;;;;1.60;1.40;;;14.10;56.90;;;;;;4964162;28;20242;-57
2021/10/22 12:21:30;;;;;;;2.80;1.30;;;14.00;57.80;;;;;;4968875;28;20204;-56
2021/10/22 12:23:57;;;;;;;1.38;1.00;;;13.90;58.10;;;;;;4967008;28;20184;-57
2021/10/22 12:26:29;;;;;;;2.83;1.00;;;13.80;59.30;;;;;;4966985;28;20263;-57
2021/10/22 12:29:08;;;;;;;2.60;1.05;;;14.10;58.80;;;;;;4968223;28;20208;-56
2021/10/22 12:31:40;;;;;;;2.97;1.10;;;14.20;58.40;;;;;;4964075;28;20212;-57
2021/10/22 12:34:10;;;;;;;3.08;1.40;;;14.40;58.10;;;;;;4970483;28;20188;-57
2021/10/22 12:36:42;;;;;;;3.17;1.20;;;14.10;57.60;;;;;;4969640;28;20219;-57
2021/10/22 12:39:27;;;;;;;2.33;1.17;;;14.20;59.00;;;;;;4968778;28;20693;-56
2021/10/22 12:41:54;;;;;;;1.70;1.20;;;14.10;58.70;;;;;;4963879;28;20184;-56
2021/10/22 12:44:28;;;;;;;2.08;1.27;;;14.30;57.80;;;;;;4958079;28;20202;-56
2021/10/22 12:46:56;;;;;;;2.78;1.42;;;13.90;57.60;;;;;;4970620;28;20183;-56
2021/10/22 12:49:29;;;;;;;1.92;1.38;;;13.90;58.20;;;;;;4968226;28;20342;-57
2021/10/22 12:51:56;;;;;;;2.85;1.58;;;14.10;58.70;;;;;;4968300;28;20206;-57
2021/10/22 12:54:22;;;;;;;2.53;1.75;;;13.90;57.60;;;;;;4969580;28;20493;-55
2021/10/22 12:56:57;;;;;;;2.93;1.40;;;13.90;58.10;;;;;;4969400;28;20686;-55
2021/10/22 12:59:25;;;;;;;1.55;1.17;;;14.00;58.60;;;;;;4967313;28;20203;-55
2021/10/22 13:01:53;;;;;;;2.22;1.13;;;13.80;58.50;;;;;;4969266;28;20723;-56
2021/10/22 13:04:22;;;;;;;3.00;1.10;;;13.60;58.70;;;;;;4969738;28;20279;-56
2021/10/22 13:09:50;;;;;;;3.30;1.30;;;13.70;61.50;;;;;;4969821;28;20207;-56
2021/10/22 13:15:11;;;;;;;2.13;1.13;;;13.60;61.80;;;;;;4970030;28;20196;-57